Time;durP1;ratioP1;P1;durP2;ratioP2;P2;SDS_P1;SDS_P2;PMS_P1;PMS_P2;Temp;Humidity;BMP_temperature;BMP_pressure;BME280_temperature;BME280_humidity;BME280_pressure;Samples;Min_cycle;Max_cycle;Signal;HPM_P1;HPM_P2
2023/03/13 00:01:36;;;;;;;;;;;;;;;-144.99;100.00;52472.56;5039894;28;19929;-72
2023/03/13 00:04:04;;;;;;;;;;;;;;;-144.99;100.00;52433.81;5036475;28;20015;-71
2023/03/13 00:06:32;;;;;;;;;;;;;;;-144.99;100.00;52456.25;5044906;28;19929;-73
2023/03/13 00:08:59;;;;;;;;;;;;;;;-144.99;100.00;52458.28;5035385;28;19957;-73
2023/03/13 00:11:26;;;;;;;;;;;;;;;-144.99;100.00;52456.25;5038399;28;20561;-73
2023/03/13 00:13:54;;;;;;;;;;;;;;;-144.99;100.00;52423.63;5042490;28;19960;-74
2023/03/13 00:16:20;;;;;;;;;;;;;;;-144.99;100.00;52492.94;5039433;28;19929;-73
2023/03/13 00:18:47;;;;;;;;;;;;;;;-144.99;100.00;52480.72;5039556;28;19939;-73
2023/03/13 00:21:16;;;;;;;;;;;;;;;-144.99;100.00;52458.28;5040653;28;19961;-73
2023/03/13 00:23:43;;;;;;;;;;;;;;;-144.99;100.00;52460.31;5041644;28;19999;-73
2023/03/13 00:26:10;;;;;;;;;;;;;;;-144.99;100.00;52448.09;5051148;28;19925;-73
2023/03/13 00:28:37;;;;;;;;;;;;;;;-144.99;100.00;52466.44;5047330;28;20371;-73
2023/03/13 00:31:05;;;;;;;;;;;;;;;-144.99;100.00;52448.09;5036904;28;19929;-73
2023/03/13 00:33:32;;;;;;;;;;;;;;;-144.99;100.00;52472.56;5035943;28;19925;-74
2023/03/13 00:35:59;;;;;;;;;;;;;;;-144.99;100.00;52480.72;5036587;28;20266;-73
2023/03/13 00:38:27;;;;;;;;;;;;;;;-144.99;100.00;52456.25;5032588;28;19983;-73
2023/03/13 00:40:58;;;;;;;;;;;;;;;-144.99;100.00;52456.25;5043911;28;19929;-73
2023/03/13 00:43:25;;;;;;;;;;;;;;;-144.99;100.00;52450.13;5042986;28;19960;-74
2023/03/13 00:45:51;;;;;;;;;;;;;;;-144.99;100.00;52452.16;5043356;28;19951;-73
2023/03/13 00:48:18;;;;;;;;;;;;;;;-144.99;100.00;52468.47;5053387;28;19928;-74
2023/03/13 00:50:44;;;;;;;;;;;;;;;-144.99;100.00;52452.16;5043777;28;19925;-73
2023/03/13 00:53:11;;;;;;;;;;;;;;;-144.99;100.00;52472.56;5036591;28;19948;-73
2023/03/13 00:55:39;;;;;;;;;;;;;;;-144.99;100.00;52452.16;5045963;28;20355;-73
2023/03/13 00:58:05;;;;;;;;;;;;;;;-144.99;100.00;52490.91;5034935;28;20017;-69
2023/03/13 01:00:32;;;;;;;;;;;;;;;-144.99;100.00;52452.16;5039637;28;19951;-69
2023/03/13 01:02:58;;;;;;;;;;;;;;;-144.99;100.00;52452.16;5042761;28;19975;-70
2023/03/13 01:05:25;;;;;;;;;;;;;;;-144.99;100.00;52488.84;5044871;28;20007;-69
2023/03/13 01:07:51;;;;;;;;;;;;;;;-144.99;100.00;52456.25;5034949;28;19939;-70
2023/03/13 01:10:18;;;;;;;;;;;;;;;-144.99;100.00;52437.91;5037659;28;20052;-70
2023/03/13 01:12:46;;;;;;;;;;;;;;;-144.99;100.00;52452.16;5045989;28;20033;-70
2023/03/13 01:15:12;;;;;;;;;;;;;;;-144.99;100.00;52464.41;5046018;28;19964;-70
2023/03/13 01:17:39;;;;;;;;;;;;;;;-144.99;100.00;52509.25;5048269;28;19955;-70
2023/03/13 01:20:06;;;;;;;;;;;;;;;-144.99;100.00;52437.91;5040515;28;19997;-72
2023/03/13 01:22:33;;;;;;;;;;;;;;;-144.99;100.00;52431.78;5036467;28;20298;-73
2023/03/13 01:24:59;;;;;;;;;;;;;;;-144.99;100.00;52448.09;5044078;28;19995;-72
2023/03/13 01:27:26;;;;;;;;;;;;;;;-144.99;100.00;52444.03;5043556;28;20426;-72
2023/03/13 01:29:54;;;;;;;;;;;;;;;-144.99;100.00;52439.94;5039880;28;19925;-73
2023/03/13 01:32:20;;;;;;;;;;;;;;;-144.99;100.00;52403.25;5033972;28;20389;-73
2023/03/13 01:34:47;;;;;;;;;;;;;;;-144.99;100.00;52429.75;5029420;28;19999;-72
2023/03/13 01:37:13;;;;;;;;;;;;;;;-144.99;100.00;52448.09;5040156;28;20336;-70
2023/03/13 01:39:40;;;;;;;;;;;;;;;-144.99;100.00;52456.25;5041714;28;19989;-70
2023/03/13 01:42:07;;;;;;;;;;;;;;;-144.99;100.00;52454.22;5037889;28;19983;-69
2023/03/13 01:44:49;;;;;;;;;;;;;;;-144.99;100.00;52456.25;5031646;28;19925;-70
2023/03/13 01:47:16;;;;;;;;;;;;;;;-144.99;100.00;52458.28;5036822;28;19929;-70
2023/03/13 01:49:44;;;;;;;;;;;;;;;-144.99;100.00;52472.56;5043085;28;19929;-72
2023/03/13 01:52:13;;;;;;;;;;;;;;;-144.99;100.00;52439.94;5044163;28;19931;-71
2023/03/13 01:54:42;;;;;;;;;;;;;;;-144.99;100.00;52484.78;5043352;28;19982;-73
2023/03/13 01:57:12;;;;;;;;;;;;;;;-144.99;100.00;52466.44;5042153;28;19932;-71
2023/03/13 01:59:42;;;;;;;;;;;;;;;-144.99;100.00;52444.03;5051873;28;20467;-72
2023/03/13 02:02:09;;;;;;;;;;;;;;;-144.99;100.00;52456.25;5045249;28;19929;-72
2023/03/13 02:04:39;;;;;;;;;;;;;;;-144.99;100.00;52480.72;5038073;28;19929;-71
2023/03/13 02:07:10;;;;;;;;;;;;;;;-144.99;100.00;52480.72;5045759;28;19955;-72
2023/03/13 02:09:38;;;;;;;;;;;;;;;-144.99;100.00;52490.91;5045077;28;19955;-71
2023/03/13 02:12:07;;;;;;;;;;;;;;;-144.99;100.00;52484.78;5036848;28;19925;-76
2023/03/13 02:14:35;;;;;;;;;;;;;;;-144.99;100.00;52490.91;5033653;28;19925;-73
2023/03/13 02:17:03;;;;;;;;;;;;;;;-144.99;100.00;52468.47;5044183;28;20440;-72
2023/03/13 02:19:32;;;;;;;;;;;;;;;-144.99;100.00;52460.31;5046703;28;19959;-72
2023/03/13 02:22:04;;;;;;;;;;;;;;;-144.99;100.00;52464.41;5037419;28;19950;-72
2023/03/13 02:24:35;;;;;;;;;;;;;;;-144.99;100.00;52456.25;5040072;28;19961;-72
2023/03/13 02:27:03;;;;;;;;;;;;;;;-144.99;100.00;52448.09;5034639;28;19941;-72
2023/03/13 02:29:31;;;;;;;;;;;;;;;-144.99;100.00;52460.31;5038194;28;19941;-72
2023/03/13 02:31:57;;;;;;;;;;;;;;;-144.99;100.00;52452.16;5041656;28;19939;-72
2023/03/13 02:34:26;;;;;;;;;;;;;;;-144.99;100.00;52476.63;5048975;28;19962;-72
2023/03/13 02:36:52;;;;;;;;;;;;;;;-144.99;100.00;52452.16;5047951;28;19943;-72
2023/03/13 02:39:23;;;;;;;;;;;;;;;-144.99;100.00;52472.56;5038523;28;20479;-72
2023/03/13 02:41:51;;;;;;;;;;;;;;;-144.99;100.00;52452.16;5044468;28;20017;-72
2023/03/13 02:44:19;;;;;;;;;;;;;;;-144.99;100.00;52507.19;4693884;28;10000346;-72
2023/03/13 02:46:46;;;;;;;;;;;;;;;-144.99;100.00;52460.31;5039703;28;20232;-73
2023/03/13 02:49:21;;;;;;;;;;;;;;;-144.99;100.00;52427.72;5050395;28;19978;-73
2023/03/13 02:51:48;;;;;;;;;;;;;;;-144.99;100.00;52480.72;5044401;28;19946;-71
2023/03/13 02:54:16;;;;;;;;;;;;;;;-144.99;100.00;52468.47;5071416;22;20026;-71
2023/03/13 02:56:45;;;;;;;;;;;;;;;-144.99;100.00;52448.09;5072991;28;19925;-71
2023/03/13 02:59:11;;;;;;;;;;;;;;;-144.99;100.00;52464.41;5063448;28;19953;-71
2023/03/13 03:01:39;;;;;;;;;;;;;;;-144.99;100.00;52497.00;5055116;28;19929;-68
2023/03/13 03:04:06;;;;;;;;;;;;;;;-144.99;100.00;52480.72;5062781;28;19973;-68
2023/03/13 03:06:33;;;;;;;;;;;;;;;-144.99;100.00;52468.47;5058484;28;19964;-68
2023/03/13 03:08:59;;;;;;;;;;;;;;;-144.99;100.00;52460.31;5054441;28;19936;-68
2023/03/13 03:11:26;;;;;;;;;;;;;;;-144.99;100.00;52462.34;5058488;28;20006;-68
2023/03/13 03:13:52;;;;;;;;;;;;;;;-144.99;100.00;52460.31;5063874;28;19942;-71
2023/03/13 03:16:19;;;;;;;;;;;;;;;-144.99;100.00;52452.16;5051436;28;19972;-72
2023/03/13 03:18:47;;;;;;;;;;;;;;;-144.99;100.00;52444.03;5056823;28;20013;-70
2023/03/13 03:21:14;;;;;;;;;;;;;;;-144.99;100.00;52452.16;5054379;28;20004;-71
2023/03/13 03:23:40;;;;;;;;;;;;;;;-144.99;100.00;52454.22;5062859;28;19933;-73
2023/03/13 03:26:07;;;;;;;;;;;;;;;-144.99;100.00;52439.94;5063278;28;20025;-72
2023/03/13 03:28:33;;;;;;;;;;;;;;;-144.99;100.00;52460.31;5068972;28;19965;-75
2023/03/13 03:31:03;;;;;;;;;;;;;;;-144.99;100.00;52470.50;5069335;28;20024;-76
2023/03/13 03:33:30;;;;;;;;;;;;;;;-144.99;100.00;52482.75;5065239;28;19939;-67
2023/03/13 03:36:01;;;;;;;;;;;;;;;-144.99;100.00;52435.88;5071648;28;19951;-68
2023/03/13 03:38:27;;;;;;;;;;;;;;;-144.99;100.00;52484.78;5065718;28;19997;-67
2023/03/13 03:40:54;;;;;;;;;;;;;;;-144.99;100.00;52454.22;5060533;28;19953;-67
2023/03/13 03:43:20;;;;;;;;;;;;;;;-144.99;100.00;52433.81;5061881;28;19987;-66
2023/03/13 03:45:47;;;;;;;;;;;;;;;-144.99;100.00;52492.94;5057963;28;19978;-67
2023/03/13 03:48:13;;;;;;;;;;;;;;;-144.99;100.00;52472.56;5059389;28;19975;-69
2023/03/13 03:50:40;;;;;;;;;;;;;;;-144.99;100.00;52497.00;5070375;28;19913;-67
2023/03/13 03:53:08;;;;;;;;;;;;;;;-144.99;100.00;52497.00;5061881;28;20079;-66
2023/03/13 03:55:34;;;;;;;;;;;;;;;-144.99;100.00;52480.72;5063138;28;19963;-67
2023/03/13 03:58:01;;;;;;;;;;;;;;;-144.99;100.00;52431.78;5070785;28;19948;-67
2023/03/13 04:00:28;;;;;;;;;;;;;;;-144.99;100.00;52482.75;5062949;28;19935;-72
2023/03/13 04:02:54;;;;;;;;;;;;;;;-144.99;100.00;52468.47;5068527;28;19969;-73
2023/03/13 04:05:21;;;;;;;;;;;;;;;-144.99;100.00;52476.63;5067905;28;19959;-72
2023/03/13 04:07:48;;;;;;;;;;;;;;;-144.99;100.00;52488.84;5065110;28;20059;-69
2023/03/13 04:10:16;;;;;;;;;;;;;;;-144.99;100.00;52439.94;5058101;28;19951;-68
2023/03/13 04:12:42;;;;;;;;;;;;;;;-144.99;100.00;52419.56;5052573;28;19970;-64
2023/03/13 04:15:09;;;;;;;;;;;;;;;-144.99;100.00;52456.25;5056026;28;20518;-64
2023/03/13 04:17:36;;;;;;;;;;;;;;;-144.99;100.00;52444.03;5052079;28;20487;-63
2023/03/13 04:20:03;;;;;;;;;;;;;;;-144.99;100.00;52450.13;5056601;28;19943;-64
2023/03/13 04:22:30;;;;;;;;;;;;;;;-144.99;100.00;52456.25;5051103;28;19935;-64
2023/03/13 04:24:57;;;;;;;;;;;;;;;-144.99;100.00;52466.44;5044167;28;19936;-62
2023/03/13 04:27:24;;;;;;;;;;;;;;;-144.99;100.00;52452.16;5061483;28;20397;-65
2023/03/13 04:29:51;;;;;;;;;;;;;;;-144.99;100.00;52456.25;5065000;28;20365;-64
2023/03/13 04:32:17;;;;;;;;;;;;;;;-144.99;100.00;52439.94;5057972;28;19937;-66
2023/03/13 04:34:44;;;;;;;;;;;;;;;-144.99;100.00;52460.31;5054805;28;19962;-64
2023/03/13 04:37:10;;;;;;;;;;;;;;;-144.99;100.00;52480.72;5050768;28;19990;-64
2023/03/13 04:39:37;;;;;;;;;;;;;;;-144.99;100.00;52444.03;5059821;28;19990;-66
2023/03/13 04:42:04;;;;;;;;;;;;;;;-144.99;100.00;52444.03;5057545;28;19941;-66
2023/03/13 04:44:32;;;;;;;;;;;;;;;-144.99;100.00;52480.72;5063489;28;19925;-66
2023/03/13 04:46:58;;;;;;;;;;;;;;;-144.99;100.00;52480.72;5066960;28;19967;-65
2023/03/13 04:49:25;;;;;;;;;;;;;;;-144.99;100.00;52456.25;5056885;28;19970;-64
2023/03/13 04:51:51;;;;;;;;;;;;;;;-144.99;100.00;52441.97;5055220;28;19937;-64
2023/03/13 04:54:18;;;;;;;;;;;;;;;-144.99;100.00;52419.56;5062752;28;19959;-65
2023/03/13 04:56:44;;;;;;;;;;;;;;;-144.99;100.00;52460.31;5048833;28;19955;-66
2023/03/13 04:59:11;;;;;;;;;;;;;;;-144.99;100.00;52486.81;5058364;28;19992;-65
2023/03/13 05:01:39;;;;;;;;;;;;;;;-144.99;100.00;52462.34;5059087;28;20007;-66
2023/03/13 05:04:06;;;;;;;;;;;;;;;-144.99;100.00;52456.25;5068231;28;20080;-65
2023/03/13 05:06:33;;;;;;;;;;;;;;;-144.99;100.00;52454.22;5057415;28;19979;-66
2023/03/13 05:08:59;;;;;;;;;;;;;;;-144.99;100.00;52484.78;5059803;28;20379;-66
2023/03/13 05:11:26;;;;;;;;;;;;;;;-144.99;100.00;52454.22;5054733;28;19941;-66
2023/03/13 05:13:52;;;;;;;;;;;;;;;-144.99;100.00;52435.88;5055700;28;19990;-63
2023/03/13 05:16:19;;;;;;;;;;;;;;;-144.99;100.00;52488.84;5055580;28;19925;-63
2023/03/13 05:18:47;;;;;;;;;;;;;;;-144.99;100.00;52494.97;5049077;28;19948;-61
2023/03/13 05:21:13;;;;;;;;;;;;;;;-144.99;100.00;52464.41;5056517;28;19924;-67
2023/03/13 05:23:40;;;;;;;;;;;;;;;-144.99;100.00;52452.16;5062706;28;20109;-67
2023/03/13 05:26:06;;;;;;;;;;;;;;;-144.99;100.00;52452.16;5061741;28;19929;-63
2023/03/13 05:28:33;;;;;;;;;;;;;;;-144.99;100.00;52448.09;5054886;28;19925;-64
2023/03/13 05:30:59;;;;;;;;;;;;;;;-144.99;100.00;52513.31;5055117;28;19933;-65
2023/03/13 05:33:26;;;;;;;;;;;;;;;-144.99;100.00;52452.16;5059504;28;19941;-65
2023/03/13 05:35:54;;;;;;;;;;;;;;;-144.99;100.00;52472.56;5049018;28;19962;-64
2023/03/13 05:38:20;;;;;;;;;;;;;;;-144.99;100.00;52452.16;5050272;28;19983;-65
2023/03/13 05:40:47;;;;;;;;;;;;;;;-144.99;100.00;52431.78;5055322;28;19959;-65
2023/03/13 05:43:13;;;;;;;;;;;;;;;-144.99;100.00;52476.63;5062062;28;19966;-65
2023/03/13 05:45:40;;;;;;;;;;;;;;;-144.99;100.00;52460.31;5043458;28;19955;-66
2023/03/13 05:48:07;;;;;;;;;;;;;;;-144.99;100.00;52435.88;5047109;28;19939;-64
2023/03/13 05:50:33;;;;;;;;;;;;;;;-144.99;100.00;52431.78;5050455;28;19939;-67
2023/03/13 05:53:01;;;;;;;;;;;;;;;-144.99;100.00;52427.72;5044219;28;19933;-68
2023/03/13 05:55:28;;;;;;;;;;;;;;;-144.99;100.00;52476.63;5049833;28;19970;-62
2023/03/13 05:57:54;;;;;;;;;;;;;;;-144.99;100.00;52431.78;5051222;28;19932;-66
2023/03/13 06:00:21;;;;;;;;;;;;;;;-144.99;100.00;52448.09;5050145;28;19986;-68
2023/03/13 06:02:47;;;;;;;;;;;;;;;-144.99;100.00;52509.25;5054022;28;20104;-68
2023/03/13 06:05:14;;;;;;;;;;;;;;;-144.99;100.00;52484.78;5061413;28;19928;-67
2023/03/13 06:07:41;;;;;;;;;;;;;;;-144.99;100.00;52411.41;5056655;28;19928;-70
2023/03/13 06:10:09;;;;;;;;;;;;;;;-144.99;100.00;52439.94;5061794;28;19925;-68
2023/03/13 06:12:36;;;;;;;;;;;;;;;-144.99;100.00;52456.25;4358264;28;10020707;-68
2023/03/13 06:15:02;;;;;;;;;;;;;;;-144.99;100.00;52439.94;5051305;28;19974;-70
2023/03/13 06:17:29;;;;;;;;;;;;;;;-144.99;100.00;52444.03;5053379;28;19936;-68
2023/03/13 06:19:55;;;;;;;;;;;;;;;-144.99;100.00;52444.03;5057049;28;20006;-68
2023/03/13 06:22:22;;;;;;;;;;;;;;;-144.99;100.00;52450.13;5057955;28;19932;-67
2023/03/13 06:24:48;;;;;;;;;;;;;;;-144.99;100.00;52499.06;5057312;28;19970;-68
2023/03/13 06:27:16;;;;;;;;;;;;;;;-144.99;100.00;52476.63;5069107;28;20108;-68
2023/03/13 06:29:43;;;;;;;;;;;;;;;-144.99;100.00;52427.72;5056902;28;20390;-67
2023/03/13 06:32:09;;;;;;;;;;;;;;;-144.99;100.00;52476.63;5052848;28;20004;-68
2023/03/13 06:34:36;;;;;;;;;;;;;;;-144.99;100.00;52386.94;5052943;28;19932;-67
2023/03/13 06:37:03;;;;;;;;;;;;;;;-144.99;100.00;52492.94;5048281;28;19979;-68
2023/03/13 06:39:29;;;;;;;;;;;;;;;-144.99;100.00;52456.25;5053262;28;19992;-69
2023/03/13 06:41:56;;;;;;;;;;;;;;;-144.99;100.00;52472.56;5051586;28;19929;-68
2023/03/13 06:44:24;;;;;;;;;;;;;;;-144.99;100.00;52401.22;5050963;28;20747;-68
2023/03/13 06:46:50;;;;;;;;;;;;;;;-144.99;100.00;52466.44;5056677;28;19925;-69
2023/03/13 06:49:17;;;;;;;;;;;;;;;-144.99;100.00;52429.75;5060157;28;19925;-68
2023/03/13 06:51:43;;;;;;;;;;;;;;;-144.99;100.00;52431.78;5045935;28;19979;-68
2023/03/13 06:54:10;;;;;;;;;;;;;;;-144.99;100.00;52452.16;5044595;28;19933;-68
2023/03/13 06:56:36;;;;;;;;;;;;;;;-144.99;100.00;52423.63;5034172;28;19925;-69
2023/03/13 06:59:03;;;;;;;;;;;;;;;-144.99;100.00;52431.78;5040032;28;19929;-68
2023/03/13 07:01:31;;;;;;;;;;;;;;;-144.99;100.00;52435.88;5038855;28;19925;-68
2023/03/13 07:03:58;;;;;;;;;;;;;;;-144.99;100.00;52468.47;5052691;28;19929;-68
2023/03/13 07:06:25;;;;;;;;;;;;;;;-144.99;100.00;52444.03;5054487;28;19929;-69
2023/03/13 07:08:52;;;;;;;;;;;;;;;-144.99;100.00;52456.25;5068955;28;19960;-68
2023/03/13 07:11:18;;;;;;;;;;;;;;;-144.99;100.00;52472.56;5056714;28;19929;-68
2023/03/13 07:13:45;;;;;;;;;;;;;;;-144.99;100.00;52456.25;5047966;28;19933;-69
2023/03/13 07:16:13;;;;;;;;;;;;;;;-144.99;100.00;52448.09;5055499;28;19995;-68
2023/03/13 07:18:44;;;;;;;;;;;;;;;-144.99;100.00;52464.41;5059370;28;20062;-68
2023/03/13 07:21:11;;;;;;;;;;;;;;;-144.99;100.00;52468.47;5057811;28;19925;-68
2023/03/13 07:23:37;;;;;;;;;;;;;;;-144.99;100.00;52419.56;5054906;28;19933;-69
2023/03/13 07:26:05;;;;;;;;;;;;;;;-144.99;100.00;52435.88;5059506;28;20321;-67
2023/03/13 07:28:32;;;;;;;;;;;;;;;-144.99;100.00;52407.31;5052132;28;19929;-67
2023/03/13 07:31:06;;;;;;;;;;;;;;;-144.99;100.00;52427.72;5058468;28;19926;-67
2023/03/13 07:33:32;;;;;;;;;;;;;;;-144.99;100.00;52458.28;5060812;28;20009;-67
2023/03/13 07:36:00;;;;;;;;;;;;;;;-144.99;100.00;52444.03;5045946;28;19983;-67
2023/03/13 07:38:27;;;;;;;;;;;;;;;-144.99;100.00;52411.41;5047026;28;19925;-67
2023/03/13 07:40:55;;;;;;;;;;;;;;;-144.99;100.00;52435.88;5044877;28;19925;-67
2023/03/13 07:43:21;;;;;;;;;;;;;;;-144.99;100.00;52452.16;5050442;28;20282;-66
2023/03/13 07:45:54;;;;;;;;;;;;;;;-144.99;100.00;52468.47;5035537;28;20291;-68
2023/03/13 07:48:22;;;;;;;;;;;;;;;-144.99;100.00;52448.09;5042610;28;19936;-67
2023/03/13 07:50:48;;;;;;;;;;;;;;;-144.99;100.00;52419.56;5049976;28;19977;-67
2023/03/13 07:53:20;;;;;;;;;;;;;;;-144.99;100.00;52444.03;5043939;28;19928;-67
2023/03/13 07:55:53;;;;;;;;;;;;;;;-144.99;100.00;52476.63;5059112;28;20016;-68
2023/03/13 07:58:20;;;;;;;;;;;;;;;-144.99;100.00;52472.56;5059683;28;19929;-67
2023/03/13 08:00:47;;;;;;;;;;;;;;;-144.99;100.00;52435.88;4707725;28;10000175;-68
2023/03/13 08:03:14;;;;;;;;;;;;;;;-144.99;100.00;52403.25;5048474;28;19929;-67
2023/03/13 08:05:41;;;;;;;;;;;;;;;-144.99;100.00;52415.47;5059647;28;20249;-67
2023/03/13 08:08:07;;;;;;;;;;;;;;;-144.99;100.00;52427.72;5051967;28;20251;-67
2023/03/13 08:10:35;;;;;;;;;;;;;;;-144.99;100.00;52407.31;5056198;28;19978;-68
2023/03/13 08:13:01;;;;;;;;;;;;;;;-144.99;100.00;52415.47;5051516;28;19913;-67
2023/03/13 08:15:28;;;;;;;;;;;;;;;-144.99;100.00;52421.59;5056272;28;19951;-68
2023/03/13 08:17:55;;;;;;;;;;;;;;;-144.99;100.00;52444.03;5057581;28;19928;-67
2023/03/13 08:20:21;;;;;;;;;;;;;;;-144.99;100.00;52423.63;5054944;28;19925;-67
2023/03/13 08:22:49;;;;;;;;;;;;;;;-144.99;100.00;52411.41;5058937;28;19916;-68
2023/03/13 08:25:16;;;;;;;;;;;;;;;-144.99;100.00;52419.56;5066334;28;19924;-68
2023/03/13 08:27:44;;;;;;;;;;;;;;;-144.99;100.00;52431.78;5052904;28;19925;-68
2023/03/13 08:30:11;;;;;;;;;;;;;;;-144.99;100.00;52427.72;5056005;28;19995;-68
2023/03/13 08:32:37;;;;;;;;;;;;;;;-144.99;100.00;52425.66;5062475;28;19928;-67
2023/03/13 08:35:04;;;;;;;;;;;;;;;-144.99;100.00;52448.09;5052564;28;19931;-68
2023/03/13 08:37:31;;;;;;;;;;;;;;;-144.99;100.00;52421.59;5054140;28;20291;-67
2023/03/13 08:39:57;;;;;;;;;;;;;;;-144.99;100.00;52399.19;5056092;28;19929;-67
2023/03/13 08:42:24;;;;;;;;;;;;;;;-144.99;100.00;52415.47;5060886;28;19924;-69
2023/03/13 08:44:52;;;;;;;;;;;;;;;-144.99;100.00;52407.31;5050486;28;19925;-68
2023/03/13 08:47:18;;;;;;;;;;;;;;;-144.99;100.00;52393.06;5057499;28;19921;-69
2023/03/13 08:49:45;;;;;;;;;;;;;;;-144.99;100.00;52423.63;5069783;28;19974;-68
2023/03/13 08:52:11;;;;;;;;;;;;;;;-144.99;100.00;52395.09;5060574;28;19928;-68
2023/03/13 08:54:38;;;;;;;;;;;;;;;-144.99;100.00;52423.63;5056687;28;19963;-69
2023/03/13 08:57:04;;;;;;;;;;;;;;;-144.99;100.00;52411.41;5061686;28;19925;-68
2023/03/13 08:59:31;;;;;;;;;;;;;;;-144.99;100.00;52435.88;5062504;28;19928;-68
2023/03/13 09:01:59;;;;;;;;;;;;;;;-144.99;100.00;52419.56;5057247;28;19945;-68
2023/03/13 09:04:25;;;;;;;;;;;;;;;-144.99;100.00;52444.03;5061183;28;19913;-69
2023/03/13 09:06:52;;;;;;;;;;;;;;;-144.99;100.00;52399.19;5055988;28;19920;-68
2023/03/13 09:09:18;;;;;;;;;;;;;;;-144.99;100.00;52427.72;5064311;28;19928;-69
2023/03/13 09:11:45;;;;;;;;;;;;;;;-144.99;100.00;52415.47;5058725;28;19932;-68
2023/03/13 09:14:11;;;;;;;;;;;;;;;-144.99;100.00;52411.41;5049808;28;19939;-69
2023/03/13 09:16:38;;;;;;;;;;;;;;;-144.99;100.00;52403.25;5053790;28;19933;-68
2023/03/13 09:19:06;;;;;;;;;;;;;;;-144.99;100.00;52415.47;5061208;28;19928;-68
2023/03/13 09:21:33;;;;;;;;;;;;;;;-144.99;100.00;52407.31;5057633;28;19932;-68
2023/03/13 09:24:00;;;;;;;;;;;;;;;-144.99;100.00;52399.19;5063754;28;19920;-68
2023/03/13 09:26:27;;;;;;;;;;;;;;;-144.99;100.00;52431.78;5065501;28;20410;-68
2023/03/13 09:28:54;;;;;;;;;;;;;;;-144.99;100.00;52437.91;5069173;28;19928;-68
2023/03/13 09:31:21;;;;;;;;;;;;;;;-144.99;100.00;52395.09;5072709;28;19925;-69
2023/03/13 09:33:49;;;;;;;;;;;;;;;-144.99;100.00;52386.94;5064357;28;19916;-68
2023/03/13 09:36:17;;;;;;;;;;;;;;;-144.99;100.00;52417.53;5064893;28;19913;-68
2023/03/13 09:38:44;;;;;;;;;;;;;;;-144.99;100.00;52431.78;5067164;28;19936;-69
2023/03/13 09:41:22;;;;;;;;;;;;;;;-144.99;100.00;52395.09;5057621;28;19913;-69
2023/03/13 09:43:51;;;;;;;;;;;;;;;-144.99;100.00;52413.44;5059308;28;19981;-69
2023/03/13 09:46:22;;;;;;;;;;;;;;;-144.99;100.00;52433.81;5051819;28;19928;-69
2023/03/13 09:48:50;;;;;;;;;;;;;;;-144.99;100.00;52433.81;5042322;28;19955;-69
2023/03/13 09:51:21;;;;;;;;;;;;;;;-144.99;100.00;52380.84;5053521;28;19978;-68
2023/03/13 09:53:51;;;;;;;;;;;;;;;-144.99;100.00;52376.75;5054792;28;19936;-70
2023/03/13 09:56:20;;;;;;;;;;;;;;;-144.99;100.00;52382.88;5064641;28;19928;-69
2023/03/13 09:58:51;;;;;;;;;;;;;;;-144.99;100.00;52419.56;5055500;28;19932;-69
2023/03/13 10:01:21;;;;;;;;;;;;;;;-144.99;100.00;52427.72;5046834;28;19991;-68
2023/03/13 10:03:54;;;;;;;;;;;;;;;-144.99;100.00;52399.19;5059003;28;19933;-68
2023/03/13 10:06:23;;;;;;;;;;;;;;;-144.99;100.00;52403.25;5054661;28;19929;-69
2023/03/13 10:08:51;;;;;;;;;;;;;;;-144.99;100.00;52415.47;5053032;28;19974;-68
2023/03/13 10:11:23;;;;;;;;;;;;;;;-144.99;100.00;52427.72;5061530;28;19929;-69
2023/03/13 10:13:52;;;;;;;;;;;;;;;-144.99;100.00;52415.47;5064108;28;19955;-69
2023/03/13 10:16:23;;;;;;;;;;;;;;;-144.99;100.00;52403.25;5061024;28;19929;-67
2023/03/13 10:18:53;;;;;;;;;;;;;;;-144.99;100.00;52401.22;5051301;28;20047;-68
2023/03/13 10:21:21;;;;;;;;;;;;;;;-144.99;100.00;52380.84;5059834;28;19975;-68
2023/03/13 10:23:51;;;;;;;;;;;;;;;-144.99;100.00;52354.34;5048486;28;20031;-68
2023/03/13 10:26:21;;;;;;;;;;;;;;;-144.99;100.00;52366.56;5067141;28;19929;-68
2023/03/13 10:28:48;;;;;;;;;;;;;;;-144.99;100.00;52415.47;5057605;28;19937;-68
2023/03/13 10:31:17;;;;;;;;;;;;;;;-144.99;100.00;52380.84;5057766;28;19913;-69
2023/03/13 10:33:44;;;;;;;;;;;;;;;-144.99;100.00;52370.63;5059458;28;20117;-68
2023/03/13 10:36:12;;;;;;;;;;;;;;;-144.99;100.00;52338.03;5058760;28;19955;-68
2023/03/13 10:38:50;;;;;;;;;;;;;;;-144.99;100.00;52338.03;5065276;28;19942;-68
2023/03/13 10:41:23;;;;;;;;;;;;;;;-144.99;100.00;52366.56;5064993;28;19967;-68
2023/03/13 10:43:51;;;;;;;;;;;;;;;-144.99;100.00;52374.72;5050560;28;19940;-68
2023/03/13 10:46:24;;;;;;;;;;;;;;;-144.99;100.00;52378.78;5052824;28;19929;-69
2023/03/13 10:48:53;;;;;;;;;;;;;;;-144.99;100.00;52384.91;5051483;28;19959;-68
2023/03/13 10:51:21;;;;;;;;;;;;;;;-144.99;100.00;52386.94;5053753;28;19917;-68
2023/03/13 10:53:50;;;;;;;;;;;;;;;-144.99;100.00;52427.72;5045014;28;19925;-68
2023/03/13 10:56:22;;;;;;;;;;;;;;;-144.99;100.00;52435.88;5057906;28;19912;-69
2023/03/13 10:58:50;;;;;;;;;;;;;;;-144.99;100.00;52372.69;5052768;28;19939;-69
2023/03/13 11:01:18;;;;;;;;;;;;;;;-144.99;100.00;52427.72;5058024;28;19917;-68
2023/03/13 11:03:46;;;;;;;;;;;;;;;-144.99;100.00;52395.09;5053237;28;19932;-68
2023/03/13 11:06:28;;;;;;;;;;;;;;;-144.99;100.00;52356.38;5063498;28;19913;-68
2023/03/13 11:09:01;;;;;;;;;;;;;;;-144.99;100.00;52293.19;5057666;28;19987;-67
2023/03/13 11:11:29;;;;;;;;;;;;;;;-144.99;96.54;52378.78;5059809;28;19913;-68
2023/03/13 11:14:06;;;;;;;;;;;;;;;-144.99;93.44;52362.50;5069664;28;19925;-67
2023/03/13 11:16:36;;;;;;;;;;;;;;;-144.99;93.72;52370.63;5058358;28;19925;-67
2023/03/13 11:19:37;;;;;;;;;;;;;;;-144.99;92.89;52346.19;5049775;28;19959;-68
2023/03/13 11:22:21;;;;;;;;;;;;;;;-144.99;93.10;52362.50;4677374;23;10002171;-71
2023/03/13 11:24:53;;;;;;;;;;;;;;;-144.99;93.99;52354.34;5013047;28;19929;-70
2023/03/13 11:27:24;;;;;;;;;;;;;;;-144.99;93.52;52366.56;5027771;28;19940;-71
2023/03/13 11:29:58;;;;;;;;;;;;;;;-144.99;93.50;52386.94;5027902;28;19929;-71
2023/03/13 11:32:31;;;;;;;;;;;;;;;-144.99;93.21;52393.06;5027049;28;19933;-72
2023/03/13 11:34:59;;;;;;;;;;;;;;;-144.99;92.96;52374.72;5028105;28;20394;-71
2023/03/13 11:37:26;;;;;;;;;;;;;;;-144.99;91.68;52391.03;5027100;28;20015;-71
2023/03/13 11:40:00;;;;;;;;;;;;;;;-144.99;90.58;52205.53;5026118;28;20383;-71
2023/03/13 11:42:37;;;;;;;;;;;;;;;-144.99;83.99;52195.34;5025816;28;20017;-71
2023/03/13 11:45:06;;;;;;;;;;;;;;;-144.99;80.96;52158.66;5025282;28;20019;-71
2023/03/13 11:47:39;;;;;;;;;;;;;;;-144.99;76.53;52126.06;5037092;28;20022;-71
2023/03/13 11:50:18;;;;;;;;;;;;;;;-144.99;75.69;52117.91;5027007;28;19942;-72
2023/03/13 11:53:03;;;;;;;;;;;;;;;-144.99;76.15;52152.56;5029659;28;20383;-72
2023/03/13 11:55:37;;;;;;;;;;;;;;;-144.99;76.08;52366.56;5026825;28;20320;-70
2023/03/13 11:58:11;;;;;;;;;;;;;;;-144.99;78.72;52386.94;5029633;28;19975;-70
2023/03/13 12:00:41;;;;;;;;;;;;;;;-144.99;81.37;52248.34;5027921;28;20053;-73
2023/03/13 12:03:14;;;;;;;;;;;;;;;-144.99;79.51;52374.72;5029534;28;19956;-70
2023/03/13 12:05:45;;;;;;;;;;;;;;;-144.99;76.79;52370.63;5036277;28;19960;-72
2023/03/13 12:08:14;;;;;;;;;;;;;;;-144.99;77.88;52370.63;5030316;28;20409;-73
2023/03/13 12:10:45;;;;;;;;;;;;;;;-144.99;81.07;52393.06;5026879;28;19990;-71
2023/03/13 12:13:14;;;;;;;;;;;;;;;-144.99;82.07;52423.63;5035727;28;19996;-70
2023/03/13 12:15:43;;;;;;;;;;;;;;;-144.99;82.41;52407.31;5031155;28;19960;-72
2023/03/13 12:18:15;;;;;;;;;;;;;;;-144.99;82.90;52444.03;5029149;28;20469;-72
2023/03/13 12:20:44;;;;;;;;;;;;;;;-144.99;83.57;52372.69;5025101;28;20051;-71
2023/03/13 12:23:18;;;;;;;;;;;;;;;-144.99;83.70;52368.59;5028315;28;19996;-73